createdAt,value
2022-11-22T00:03:02.946Z,261.20
2022-11-22T00:08:03.155Z,261.20
2022-11-22T00:13:03.363Z,261.20
2022-11-22T00:18:02.570Z,261.20
2022-11-22T00:22:59.728Z,261.20
2022-11-22T00:27:58.914Z,261.20
2022-11-22T00:32:58.070Z,261.20
2022-11-22T00:37:57.246Z,261.20
2022-11-22T00:42:56.404Z,261.20
2022-11-22T00:47:55.600Z,261.20
2022-11-22T00:52:55.789Z,261.20
2022-11-22T00:57:54.094Z,261.20
2022-11-22T01:02:54.428Z,423.00
2022-11-22T01:07:53.773Z,439.90
2022-11-22T01:12:50.918Z,438.60
2022-11-22T01:17:54.203Z,422.80
2022-11-22T01:22:50.478Z,416.80
2022-11-22T01:27:50.777Z,422.30
2022-11-22T01:32:49.095Z,424.60
2022-11-22T01:37:48.385Z,413.30
2022-11-22T01:42:48.676Z,405.90
2022-11-22T01:47:47.976Z,269.90
2022-11-22T01:52:46.253Z,306.70
2022-11-22T01:57:45.545Z,343.30
2022-11-22T02:02:44.857Z,420.60
2022-11-22T02:07:44.240Z,428.00
2022-11-22T02:12:44.383Z,423.20
2022-11-22T02:17:43.686Z,415.70
2022-11-22T02:22:43.998Z,405.50
2022-11-22T02:27:41.324Z,409.80
2022-11-22T02:32:40.619Z,418.50
2022-11-22T02:37:39.959Z,405.20
2022-11-22T02:42:38.088Z,410.90
2022-11-22T02:47:39.278Z,393.30
2022-11-22T02:52:38.593Z,403.90
2022-11-22T02:57:36.864Z,443.70
2022-11-22T03:02:36.150Z,446.50
2022-11-22T03:07:37.525Z,445.30
2022-11-22T03:12:34.699Z,418.10
2022-11-22T03:17:34.045Z,424.20
2022-11-22T03:22:34.181Z,425.90
2022-11-22T03:27:33.482Z,417.40
2022-11-22T03:32:32.791Z,401.10
2022-11-22T03:37:33.120Z,417.50
2022-11-22T03:42:30.445Z,438.30
2022-11-22T03:47:30.752Z,432.30
2022-11-22T03:52:29.030Z,417.50
2022-11-22T03:57:30.313Z,431.40
2022-11-22T04:02:28.600Z,405.70
2022-11-22T04:07:26.908Z,411.30
2022-11-22T04:12:26.189Z,363.80
2022-11-22T04:17:26.500Z,413.80
2022-11-22T04:22:25.796Z,375.30
2022-11-22T04:27:24.105Z,399.20
2022-11-22T04:32:23.277Z,410.90
2022-11-22T04:37:23.589Z,414.60
2022-11-22T04:42:21.863Z,426.70
2022-11-22T04:47:21.286Z,432.80
2022-11-22T04:52:20.437Z,430.00
2022-11-22T04:57:19.577Z,405.90
2022-11-22T05:02:20.056Z,408.80
2022-11-22T05:07:19.219Z,408.70
2022-11-22T05:12:17.309Z,404.40
2022-11-22T05:17:19.627Z,383.20
2022-11-22T05:22:17.931Z,312.00
2022-11-22T05:27:16.226Z,441.90
2022-11-22T05:32:14.571Z,428.20
2022-11-22T05:37:14.868Z,411.20
2022-11-22T05:42:14.163Z,433.00
2022-11-22T05:47:12.500Z,425.80
2022-11-22T05:52:12.776Z,428.30
2022-11-22T05:57:11.042Z,422.20
2022-11-22T06:02:12.445Z,417.00
2022-11-22T06:07:11.586Z,421.00
2022-11-22T06:12:09.876Z,415.60
2022-11-22T06:17:08.168Z,412.10
2022-11-22T06:22:06.490Z,415.20
2022-11-22T06:27:06.817Z,429.40
2022-11-22T06:32:06.139Z,425.30
2022-11-22T06:37:05.480Z,447.00
2022-11-22T06:42:04.782Z,409.80
2022-11-22T06:47:05.422Z,432.20
2022-11-22T06:52:04.309Z,424.80
2022-11-22T06:57:03.617Z,423.30
2022-11-22T07:02:06.330Z,395.80
2022-11-22T07:07:01.203Z,399.00
2022-11-22T07:12:00.521Z,405.70
2022-11-22T07:17:03.960Z,334.40
2022-11-22T07:21:59.027Z,424.70
2022-11-22T07:26:58.358Z,416.50
2022-11-22T07:31:58.654Z,410.70
2022-11-22T07:37:00.472Z,410.70
2022-11-22T07:41:56.112Z,412.10
2022-11-22T07:46:57.384Z,410.30
2022-11-22T07:51:54.687Z,410.30
2022-11-22T07:56:54.990Z,418.40
2022-11-22T08:01:52.348Z,420.40
2022-11-22T08:06:52.509Z,416.20
2022-11-22T08:11:51.819Z,417.60
2022-11-22T08:16:51.122Z,415.60
2022-11-22T08:21:57.087Z,361.70
2022-11-22T08:26:51.611Z,414.00
2022-11-22T08:31:48.928Z,371.00
2022-11-22T08:36:49.323Z,386.30
2022-11-22T08:41:49.427Z,426.30
2022-11-22T08:46:46.731Z,400.10
2022-11-22T08:51:47.052Z,392.60
2022-11-22T08:56:45.346Z,371.30
2022-11-22T09:01:46.734Z,407.10
2022-11-22T09:11:43.119Z,416.10
2022-11-22T09:16:43.244Z,393.10
2022-11-22T09:21:41.565Z,415.10
2022-11-22T09:26:42.720Z,359.70
2022-11-22T09:31:40.042Z,382.70
2022-11-22T09:36:40.195Z,448.80
2022-11-22T09:41:38.321Z,379.80
2022-11-22T09:46:38.720Z,416.40
2022-11-22T09:51:36.819Z,415.30
2022-11-22T09:56:36.172Z,432.40
2022-11-22T10:01:38.331Z,404.60
2022-11-22T10:06:34.444Z,393.20
2022-11-22T10:11:36.590Z,409.70
2022-11-22T10:16:33.117Z,416.70
2022-11-22T10:21:32.435Z,411.10
2022-11-22T10:26:31.577Z,410.20
2022-11-22T10:31:32.709Z,461.40
2022-11-22T10:36:30.998Z,413.90
2022-11-22T10:41:30.315Z,411.30
2022-11-22T10:46:28.609Z,417.10
2022-11-22T10:51:29.886Z,408.70
2022-11-22T10:56:27.175Z,441.70
2022-11-22T11:01:28.553Z,403.90
2022-11-22T11:06:37.906Z,421.90
2022-11-22T11:11:25.887Z,427.30
2022-11-22T11:16:24.032Z,404.00
2022-11-22T11:21:24.168Z,331.10
2022-11-22T11:26:22.483Z,391.30
2022-11-22T11:31:21.643Z,408.00
2022-11-22T11:36:20.802Z,415.50
2022-11-22T11:41:19.936Z,403.10
2022-11-22T11:46:19.120Z,384.80
2022-11-22T11:51:19.304Z,394.20
2022-11-22T11:56:54.417Z,420.00
2022-11-22T12:01:17.720Z,393.50
2022-11-22T12:06:16.881Z,449.80
2022-11-22T12:11:16.200Z,363.70
2022-11-22T12:16:15.488Z,411.60
2022-11-22T12:21:13.802Z,419.20
2022-11-22T12:26:13.089Z,428.60
2022-11-22T12:31:15.336Z,386.30
2022-11-22T12:36:12.608Z,427.40
2022-11-22T12:41:10.939Z,419.50
2022-11-22T12:46:10.257Z,418.60
2022-11-22T12:51:09.560Z,425.80
2022-11-22T12:56:08.832Z,414.80
2022-11-22T13:01:08.215Z,417.40
2022-11-22T13:06:08.349Z,412.60
2022-11-22T13:11:07.654Z,424.10
2022-11-22T13:16:05.929Z,418.80
2022-11-22T13:21:05.231Z,443.30
2022-11-22T13:26:04.539Z,413.80
2022-11-22T13:31:04.835Z,426.30
2022-11-22T13:36:03.151Z,411.40
2022-11-22T13:41:02.262Z,424.40
2022-11-22T13:46:03.570Z,177.40
2022-11-22T13:51:00.814Z,177.40
2022-11-22T13:56:01.115Z,177.40
2022-11-22T14:00:59.513Z,430.60
2022-11-22T14:05:58.568Z,410.10
2022-11-22T14:10:58.838Z,419.90
2022-11-22T14:15:57.133Z,426.80
2022-11-22T14:20:57.419Z,439.00
2022-11-22T14:25:57.714Z,420.20
2022-11-22T14:30:55.003Z,417.10
2022-11-22T14:35:55.319Z,422.10
2022-11-22T14:40:54.609Z,411.20
2022-11-22T14:45:52.935Z,407.50
2022-11-22T14:50:52.052Z,410.80
2022-11-22T14:55:52.373Z,379.90
2022-11-22T15:00:50.730Z,437.10
2022-11-22T15:09:11.393Z,432.00
2022-11-22T15:10:49.065Z,433.80
2022-11-22T16:00:41.046Z,398.70
2022-11-22T16:06:05.965Z,387.80
2022-11-22T16:10:39.375Z,451.20
2022-11-22T16:15:40.705Z,435.90
2022-11-22T16:20:38.015Z,420.70
2022-11-22T16:25:37.155Z,413.90
2022-11-22T16:30:37.809Z,407.30
2022-11-22T16:35:37.127Z,414.50
2022-11-22T16:40:38.715Z,426.30
2022-11-22T16:45:34.342Z,393.90
2022-11-22T16:50:34.452Z,401.70
2022-11-22T16:55:34.560Z,399.10
2022-11-22T17:00:32.187Z,413.70
2022-11-22T17:05:32.245Z,388.40
2022-11-22T17:10:31.420Z,409.80
2022-11-22T17:15:29.692Z,412.70
2022-11-22T17:20:29.010Z,404.80
2022-11-22T17:25:28.203Z,407.50
2022-11-22T17:30:26.512Z,357.30
2022-11-22T17:35:27.767Z,358.90
2022-11-22T17:40:27.984Z,358.90
2022-11-22T17:45:24.934Z,476.40
2022-11-22T17:50:25.540Z,419.30
2022-11-22T17:55:26.360Z,448.50
2022-11-22T18:00:29.688Z,428.70
2022-11-22T18:05:23.072Z,428.70
2022-11-22T18:10:22.666Z,428.70
2022-11-22T18:15:20.917Z,428.70
2022-11-22T18:20:19.861Z,428.70
2022-11-22T18:25:20.392Z,428.70
2022-11-22T18:30:18.624Z,428.70
2022-11-22T18:35:19.914Z,428.70
2022-11-22T18:40:17.206Z,428.70
2022-11-22T18:45:16.568Z,428.70
2022-11-22T18:55:15.649Z,428.70
2022-11-22T19:00:14.306Z,428.70
2022-11-22T19:05:13.506Z,428.70
2022-11-22T19:10:13.623Z,428.70
2022-11-22T19:15:13.662Z,428.70
2022-11-22T19:20:32.137Z,428.70
2022-11-22T19:25:12.664Z,428.70
2022-11-22T19:30:09.921Z,428.70
2022-11-22T19:35:10.031Z,428.70
2022-11-22T19:40:09.234Z,428.70
2022-11-22T19:45:08.700Z,428.70
2022-11-22T19:50:06.874Z,428.70
2022-11-22T19:55:08.328Z,428.70
2022-11-22T20:00:06.154Z,428.70
2022-11-22T20:05:06.537Z,428.70
2022-11-22T20:10:03.743Z,428.70
2022-11-22T20:15:03.869Z,428.70
2022-11-22T20:20:04.297Z,428.70
2022-11-22T20:25:01.523Z,428.70
2022-11-22T20:30:01.733Z,428.70
2022-11-22T20:34:59.644Z,428.70
2022-11-22T20:39:59.747Z,428.70
2022-11-22T20:44:58.389Z,428.70
2022-11-22T20:49:57.608Z,428.70
2022-11-22T20:55:04.599Z,428.70
2022-11-22T20:59:57.163Z,428.70
2022-11-22T21:04:55.097Z,428.70
2022-11-22T21:09:55.913Z,428.70
2022-11-22T21:14:54.733Z,428.70
2022-11-22T21:19:52.717Z,428.70
2022-11-22T21:24:52.937Z,428.70
2022-11-22T21:29:52.141Z,428.70
2022-11-22T21:34:50.352Z,428.70
2022-11-22T21:39:51.556Z,428.70
2022-11-22T21:44:49.743Z,428.70
2022-11-22T21:49:47.948Z,428.70
2022-11-22T21:54:47.210Z,428.70
2022-11-22T21:59:46.420Z,428.70
2022-11-22T22:04:46.600Z,428.70
2022-11-22T22:09:44.746Z,428.70
2022-11-22T22:14:44.910Z,428.70
2022-11-22T22:19:43.076Z,428.70
2022-11-22T22:24:42.272Z,428.70
2022-11-22T22:29:41.446Z,428.70
2022-11-22T22:34:39.680Z,428.70
2022-11-22T22:39:41.872Z,428.70
2022-11-22T22:44:41.027Z,428.70
2022-11-22T22:49:38.188Z,428.70
2022-11-22T22:54:36.389Z,428.70
2022-11-22T22:59:37.612Z,428.70
2022-11-22T23:04:36.809Z,428.70
2022-11-22T23:09:35.985Z,428.70
2022-11-22T23:14:35.178Z,428.70
2022-11-22T23:19:33.575Z,428.70
2022-11-22T23:24:34.575Z,428.70
2022-11-22T23:29:31.945Z,428.70
2022-11-22T23:34:30.966Z,428.70
2022-11-22T23:39:30.508Z,428.70
2022-11-22T23:44:30.474Z,428.70
2022-11-22T23:49:29.928Z,428.70
2022-11-22T23:54:27.858Z,428.70
2022-11-22T23:59:27.080Z,428.70
